Time;durP1;ratioP1;P1;durP2;ratioP2;P2;SDS_P1;SDS_P2;PMS_P1;PMS_P2;Temp;Humidity;BMP_temperature;BMP_pressure;BME280_temperature;BME280_humidity;BME280_pressure;Samples;Min_cycle;Max_cycle;Signal;HPM_P1;HPM_P2
2022/07/21 00:01:05;;;;;;;0.00;0.00;;;;;;;20.04;45.74;101846.28;7358884;19;20006;-62
2022/07/21 00:03:31;;;;;;;0.05;0.05;;;;;;;20.01;45.34;101837.59;7361691;19;20025;-62
2022/07/21 00:05:56;;;;;;;0.03;0.03;;;;;;;20.02;45.88;101839.31;7362007;19;20041;-62
2022/07/21 00:08:22;;;;;;;0.00;0.00;;;;;;;20.03;45.54;101841.06;7363498;19;20829;-61
2022/07/21 00:10:48;;;;;;;0.10;0.10;;;;;;;19.99;45.42;101832.38;7359815;19;20015;-62
2022/07/21 00:13:13;;;;;;;0.00;0.00;;;;;;;20.01;45.77;101842.91;7359389;19;20027;-62
2022/07/21 00:15:39;;;;;;;0.03;0.03;;;;;;;19.99;45.68;101844.75;7362825;19;20014;-62
2022/07/21 00:18:05;;;;;;;0.10;0.10;;;;;;;19.97;45.37;101850.09;7361413;19;20006;-62
2022/07/21 00:20:32;;;;;;;0.10;0.10;;;;;;;19.96;46.14;101845.75;7367124;19;20006;-62
2022/07/21 00:22:58;;;;;;;0.00;0.00;;;;;;;19.96;45.45;101846.59;7364190;19;20372;-62
2022/07/21 00:25:23;;;;;;;0.00;0.00;;;;;;;19.85;45.92;101838.25;7363840;19;20042;-62
2022/07/21 00:27:49;;;;;;;0.05;0.05;;;;;;;19.90;45.84;101846.03;7366398;19;20010;-62
2022/07/21 00:30:14;;;;;;;0.00;0.00;;;;;;;19.92;45.56;101853.00;7362057;19;20033;-62
2022/07/21 00:32:41;;;;;;;0.00;0.00;;;;;;;19.90;45.64;101862.78;7365744;19;20094;-61
2022/07/21 00:35:08;;;;;;;0.00;0.00;;;;;;;19.90;45.64;101848.66;7364935;19;20029;-62
2022/07/21 00:37:34;;;;;;;0.10;0.10;;;;;;;19.86;45.40;101855.88;7363861;19;20358;-62
2022/07/21 00:39:59;;;;;;;0.00;0.00;;;;;;;19.86;45.27;101858.53;7364201;19;20011;-62
2022/07/21 00:42:31;;;;;;;0.03;0.03;;;;;;;19.84;45.51;101849.81;7366595;19;20015;-61
2022/07/21 00:44:58;;;;;;;0.08;0.08;;;;;;;19.82;45.33;101850.78;7364540;19;20027;-62
2022/07/21 00:47:25;;;;;;;0.00;0.00;;;;;;;19.81;45.44;101851.72;7364719;19;20026;-61
2022/07/21 00:49:50;;;;;;;;;;;;;;;19.81;44.27;101857.00;7362007;19;20105;-62
2022/07/21 00:52:16;;;;;;;0.10;0.10;;;;;;;19.66;45.24;101837.31;7364373;19;20043;-61
2022/07/21 00:54:42;;;;;;;0.00;0.00;;;;;;;19.70;45.63;101853.03;7367247;19;20763;-62
2022/07/21 00:57:08;;;;;;;0.00;0.00;;;;;;;19.67;45.37;101854.97;7366530;19;20003;-62
2022/07/21 00:59:34;;;;;;;0.00;0.00;;;;;;;19.64;45.51;101848.00;7365927;19;20014;-62
2022/07/21 01:02:00;;;;;;;0.00;0.00;;;;;;;19.61;45.55;101849.91;7366514;19;20010;-62
2022/07/21 01:04:26;;;;;;;0.10;0.10;;;;;;;19.59;45.58;101851.75;7365762;19;20007;-62
2022/07/21 01:06:53;;;;;;;0.08;0.08;;;;;;;19.57;45.37;101848.31;7365406;19;20006;-62
2022/07/21 01:09:19;;;;;;;0.00;0.00;;;;;;;19.54;45.10;101853.72;7368457;19;20018;-61
2022/07/21 01:11:45;;;;;;;0.10;0.10;;;;;;;19.52;45.22;101851.13;7362469;19;20010;-62
2022/07/21 01:14:11;;;;;;;0.00;0.00;;;;;;;19.45;45.31;101839.91;7368878;19;20093;-62
2022/07/21 01:16:37;;;;;;;0.03;0.03;;;;;;;19.47;45.05;101836.38;7366273;19;20006;-61
2022/07/21 01:19:02;;;;;;;0.00;0.00;;;;;;;19.36;45.08;101827.09;7366746;19;20516;-62
2022/07/21 01:21:36;;;;;;;0.10;0.10;;;;;;;19.49;44.84;101847.75;7363032;19;20007;-62
2022/07/21 01:24:04;;;;;;;0.00;0.00;;;;;;;19.44;44.85;101843.50;7367553;19;20042;-62
2022/07/21 01:26:31;;;;;;;0.00;0.00;;;;;;;19.35;45.28;101835.06;7363648;19;20015;-61
2022/07/21 01:28:57;;;;;;;0.05;0.05;;;;;;;19.36;45.23;101836.78;7366430;19;20514;-62
2022/07/21 01:31:23;;;;;;;0.00;0.00;;;;;;;19.35;44.92;101843.88;7364571;19;20814;-62
2022/07/21 01:33:50;;;;;;;0.00;0.00;;;;;;;19.44;45.22;101854.09;7367384;19;20006;-61
2022/07/21 01:36:15;;;;;;;0.10;0.10;;;;;;;19.38;44.86;101843.75;7365414;19;20010;-61
2022/07/21 01:41:32;;;;;;;0.00;0.00;;;;;;;19.42;45.07;101855.09;7364288;19;20031;-61
2022/07/21 01:44:05;;;;;;;0.00;0.00;;;;;;;19.42;45.08;101855.97;7364628;19;20021;-61
2022/07/21 01:46:34;;;;;;;0.00;0.00;;;;;;;19.40;45.40;101844.53;7366105;19;20025;-62
2022/07/21 01:48:59;;;;;;;0.00;0.00;;;;;;;19.38;45.59;101849.06;7364460;19;20018;-61
2022/07/21 01:51:26;;;;;;;0.00;0.00;;;;;;;19.38;45.30;101854.34;7366417;19;20014;-61
2022/07/21 01:53:52;;;;;;;0.00;0.00;;;;;;;19.30;45.32;101845.84;7364544;19;20025;-61
2022/07/21 01:56:22;;;;;;;0.10;0.10;;;;;;;19.35;45.21;101848.31;7366086;19;20078;-61
2022/07/21 01:58:48;;;;;;;0.10;0.10;;;;;;;19.30;45.58;101850.28;7354828;19;20018;-61
2022/07/21 02:01:18;;;;;;;0.10;0.10;;;;;;;19.30;45.44;101845.84;7364347;19;20044;-61
2022/07/21 02:03:44;;;;;;;0.00;0.00;;;;;;;19.12;45.42;101826.28;7356707;19;20018;-61
2022/07/21 02:06:10;;;;;;;0.10;0.10;;;;;;;19.24;45.74;101846.09;7362998;19;20014;-62
2022/07/21 02:08:36;;;;;;;0.00;0.00;;;;;;;19.24;45.74;101846.09;7359290;19;21345;-62
2022/07/21 02:11:01;;;;;;;0.00;0.00;;;;;;;19.22;45.75;101836.50;7359494;19;20003;-61
2022/07/21 02:13:27;;;;;;;0.08;0.08;;;;;;;18.98;45.58;101807.44;7359450;19;20761;-62
2022/07/21 02:15:53;;;;;;;0.00;0.00;;;;;;;19.20;45.43;101831.25;7363394;19;20019;-61
2022/07/21 02:18:18;;;;;;;0.05;0.05;;;;;;;19.19;45.79;101834.84;7362228;19;20002;-61
2022/07/21 02:20:54;;;;;;;0.10;0.10;;;;;;;19.17;45.43;101848.16;7355270;19;20038;-61
2022/07/21 02:23:23;;;;;;;0.10;0.10;;;;;;;19.17;45.64;101852.59;7360938;19;20010;-62
2022/07/21 02:25:49;;;;;;;0.08;0.08;;;;;;;19.15;45.63;101852.63;7363333;19;20027;-62
2022/07/21 02:28:14;;;;;;;0.00;0.00;;;;;;;19.15;45.94;101849.13;7361336;19;20018;-61
2022/07/21 02:30:40;;;;;;;0.00;0.00;;;;;;;19.14;45.87;101860.63;7361269;19;20018;-61
2022/07/21 02:33:06;;;;;;;0.00;0.00;;;;;;;19.10;45.52;101851.09;7362887;19;20009;-62
2022/07/21 02:35:32;;;;;;;0.05;0.05;;;;;;;19.13;45.60;101864.22;7360865;19;20101;-61
2022/07/21 02:37:58;;;;;;;0.00;0.00;;;;;;;19.11;45.77;101860.75;7362698;19;20045;-61
2022/07/21 02:40:23;;;;;;;0.00;0.00;;;;;;;19.10;45.70;101870.47;7359261;19;20006;-61
2022/07/21 02:42:49;;;;;;;0.05;0.05;;;;;;;19.02;45.95;101856.69;7362564;19;20006;-61
2022/07/21 02:45:15;;;;;;;0.00;0.00;;;;;;;19.03;45.78;101857.56;7360623;19;20018;-61
2022/07/21 02:47:52;;;;;;;0.10;0.10;;;;;;;19.09;45.28;101871.41;7361055;19;20014;-61
2022/07/21 02:50:19;;;;;;;0.10;0.10;;;;;;;19.06;45.71;101870.66;7362541;19;20475;-61
2022/07/21 02:52:45;;;;;;;0.00;0.00;;;;;;;19.05;46.21;101876.88;7357809;19;20537;-61
2022/07/21 02:55:10;;;;;;;0.00;0.00;;;;;;;18.92;46.47;101866.78;7361391;19;20120;-62
2022/07/21 02:57:36;;;;;;;0.10;0.10;;;;;;;19.00;46.47;101876.19;7361784;19;20433;-61
2022/07/21 03:00:05;;;;;;;0.00;0.00;;;;;;;18.65;46.76;101825.47;7360607;19;20441;-62
2022/07/21 03:02:31;;;;;;;0.10;0.10;;;;;;;18.90;46.60;101884.50;7355428;19;20007;-62
2022/07/21 03:04:56;;;;;;;0.00;0.00;;;;;;;18.88;46.71;101881.06;7351029;19;20034;-62
2022/07/21 03:07:22;;;;;;;0.00;0.00;;;;;;;18.84;47.00;101882.09;7361529;19;20362;-61
2022/07/21 03:09:47;;;;;;;0.10;0.10;;;;;;;18.83;47.67;101877.72;7363105;19;20616;-61
2022/07/21 03:12:12;;;;;;;0.10;0.10;;;;;;;18.83;47.53;101877.72;7358922;19;20027;-62
2022/07/21 03:14:38;;;;;;;0.00;0.00;;;;;;;18.74;47.27;101871.91;7362684;19;20354;-61
2022/07/21 03:17:03;;;;;;;0.00;0.00;;;;;;;18.75;47.44;101885.06;7362103;19;20474;-61
2022/07/21 03:19:29;;;;;;;0.05;0.05;;;;;;;18.76;47.52;101881.53;7352819;19;20033;-62
2022/07/21 03:21:54;;;;;;;0.00;0.00;;;;;;;18.73;48.47;101886.94;7362662;19;20094;-61
2022/07/21 03:24:20;;;;;;;0.10;0.10;;;;;;;18.71;48.70;101888.78;7361963;19;20026;-62
2022/07/21 03:26:45;;;;;;;0.00;0.00;;;;;;;18.67;48.32;101887.13;7360297;19;20014;-62
2022/07/21 03:29:11;;;;;;;0.00;0.00;;;;;;;18.64;48.16;101881.94;7362878;19;20371;-61
2022/07/21 03:31:36;;;;;;;0.10;0.10;;;;;;;18.39;48.60;101851.13;7360402;19;20390;-61
2022/07/21 03:34:03;;;;;;;0.00;0.00;;;;;;;18.60;48.40;101896.22;7364186;19;20037;-61
2022/07/21 03:36:28;;;;;;;0.10;0.10;;;;;;;18.58;48.87;101890.97;7365327;19;20481;-61
2022/07/21 03:38:53;;;;;;;0.00;0.00;;;;;;;18.56;48.73;101886.69;7370673;19;20006;-62
2022/07/21 03:41:19;;;;;;;0.03;0.03;;;;;;;18.55;49.03;101877.00;7369470;19;20030;-61
2022/07/21 03:43:44;;;;;;;0.10;0.10;;;;;;;18.52;49.03;101882.41;7362585;19;20021;-61
2022/07/21 03:46:10;;;;;;;0.00;0.00;;;;;;;18.49;48.90;101883.38;7366830;19;20553;-61
2022/07/21 03:48:35;;;;;;;0.00;0.00;;;;;;;18.47;48.75;101884.38;7368749;19;20014;-62
2022/07/21 03:51:01;;;;;;;0.00;0.00;;;;;;;18.44;48.99;101881.81;7369713;19;20098;-61
2022/07/21 03:53:26;;;;;;;0.10;0.10;;;;;;;18.36;49.99;101880.34;7367558;19;20036;-62
2022/07/21 03:55:51;;;;;;;0.00;0.00;;;;;;;18.32;49.60;101877.84;7367805;19;20060;-61
2022/07/21 03:58:17;;;;;;;0.05;0.05;;;;;;;18.28;49.33;101884.16;7368469;19;20488;-61
2022/07/21 04:00:44;;;;;;;0.00;0.00;;;;;;;18.23;49.69;101880.81;7365467;19;20017;-61
2022/07/21 04:03:11;;;;;;;0.03;0.03;;;;;;;18.15;49.48;101878.47;7368089;19;20740;-62
2022/07/21 04:05:37;;;;;;;0.00;0.00;;;;;;;18.10;50.46;101896.28;7367771;19;20832;-62
2022/07/21 04:08:03;;;;;;;0.00;0.00;;;;;;;18.05;49.96;101893.78;7366977;19;20429;-62
2022/07/21 04:10:31;;;;;;;0.10;0.10;;;;;;;17.98;50.40;101892.25;7367597;19;20021;-62
2022/07/21 04:12:59;;;;;;;0.00;0.00;;;;;;;17.96;50.00;101893.25;7366854;19;20022;-62
2022/07/21 04:15:24;;;;;;;0.00;0.00;;;;;;;17.91;50.29;101885.47;7367429;19;20399;-62
2022/07/21 04:17:50;;;;;;;0.00;0.00;;;;;;;17.84;50.41;101890.09;7369195;19;20082;-62
2022/07/21 04:20:16;;;;;;;0.00;0.00;;;;;;;17.69;51.10;101874.75;7368557;19;20010;-62
2022/07/21 04:22:43;;;;;;;0.00;0.00;;;;;;;17.70;50.69;101888.81;7367623;19;20707;-61
2022/07/21 04:25:10;;;;;;;0.00;0.00;;;;;;;17.61;51.39;101882.91;7368012;19;20007;-62
2022/07/21 04:27:36;;;;;;;0.03;0.03;;;;;;;17.55;51.20;101890.19;7367495;19;20019;-62
2022/07/21 04:30:03;;;;;;;0.00;0.00;;;;;;;17.44;51.36;101881.75;7367213;19;20030;-61
2022/07/21 04:32:29;;;;;;;0.00;0.00;;;;;;;17.42;51.85;101886.19;7368103;19;20018;-62
2022/07/21 04:34:54;;;;;;;0.00;0.00;;;;;;;17.24;51.38;101866.53;7366829;19;20018;-62
2022/07/21 04:37:20;;;;;;;0.00;0.00;;;;;;;17.29;51.00;101894.53;7367457;19;20025;-61
2022/07/21 04:39:45;;;;;;;0.00;0.00;;;;;;;17.24;52.11;101892.94;7369351;19;20038;-61
2022/07/21 04:42:11;;;;;;;0.00;0.00;;;;;;;17.18;52.62;101887.84;7366366;19;20123;-61
2022/07/21 04:44:36;;;;;;;0.00;0.00;;;;;;;17.13;51.61;101890.59;7366217;19;20014;-62
2022/07/21 04:47:02;;;;;;;0.00;0.00;;;;;;;17.07;51.86;101893.44;7364336;19;20090;-61
2022/07/21 04:49:27;;;;;;;0.10;0.10;;;;;;;17.02;51.69;101892.72;7366508;19;20356;-62
2022/07/21 04:51:52;;;;;;;0.10;0.10;;;;;;;16.98;52.03;101891.09;7367250;19;21583;-62
2022/07/21 04:54:18;;;;;;;0.00;0.00;;;;;;;16.91;51.95;101890.41;7366436;19;20006;-61
2022/07/21 04:56:44;;;;;;;0.00;0.00;;;;;;;16.89;51.98;101896.66;7366920;19;20573;-62
2022/07/21 04:59:10;;;;;;;0.00;0.00;;;;;;;16.85;52.22;101896.75;7364232;19;20696;-62
2022/07/21 05:01:37;;;;;;;0.10;0.10;;;;;;;16.84;52.20;101895.03;7366503;19;20780;-62
2022/07/21 05:04:03;;;;;;;0.00;0.00;;;;;;;16.78;52.50;101889.94;7362699;19;20015;-62
2022/07/21 05:06:28;;;;;;;0.00;0.00;;;;;;;16.82;52.76;101891.53;7367647;19;20021;-62
2022/07/21 05:08:54;;;;;;;0.00;0.00;;;;;;;16.82;52.39;101895.97;7366448;19;20010;-61
2022/07/21 05:11:19;;;;;;;0.00;0.00;;;;;;;16.72;52.55;101868.97;7367218;19;22315;-62
2022/07/21 05:13:45;;;;;;;0.00;0.00;;;;;;;16.83;52.72;101888.03;7366686;19;20014;-61
2022/07/21 05:16:10;;;;;;;0.00;0.00;;;;;;;16.84;53.08;101889.75;7365895;19;20025;-61
2022/07/21 05:18:36;;;;;;;0.00;0.00;;;;;;;16.85;53.46;101888.81;7364644;19;20017;-61
2022/07/21 05:21:01;;;;;;;0.00;0.00;;;;;;;16.86;53.77;101885.28;7365047;19;20024;-61
2022/07/21 05:23:27;;;;;;;0.10;0.10;;;;;;;16.81;53.03;101879.28;7366259;19;20025;-62
2022/07/21 05:25:52;;;;;;;0.00;0.00;;;;;;;16.85;52.90;101880.06;7366536;19;20014;-62
2022/07/21 05:28:18;;;;;;;0.00;0.00;;;;;;;16.90;53.27;101888.69;7366584;19;20030;-62
2022/07/21 05:30:43;;;;;;;0.00;0.00;;;;;;;16.92;53.60;101884.22;7364489;19;20018;-62
2022/07/21 05:33:08;;;;;;;0.10;0.10;;;;;;;16.95;53.95;101886.78;7366612;19;20477;-62
2022/07/21 05:35:34;;;;;;;0.00;0.00;;;;;;;16.90;54.44;101872.00;7362974;19;20098;-62
2022/07/21 05:37:59;;;;;;;0.00;0.00;;;;;;;16.99;53.67;101877.88;7366620;19;20078;-62
2022/07/21 05:40:25;;;;;;;0.00;0.00;;;;;;;17.03;54.00;101873.34;7364446;19;20852;-62
2022/07/21 05:42:50;;;;;;;0.00;0.00;;;;;;;16.96;54.28;101869.16;7365822;19;20014;-62
2022/07/21 05:45:16;;;;;;;0.00;0.00;;;;;;;17.09;53.68;101889.88;7363861;19;20010;-62
2022/07/21 05:47:42;;;;;;;0.00;0.00;;;;;;;17.04;54.08;101880.38;7367898;19;20018;-62
2022/07/21 05:50:08;;;;;;;0.00;0.00;;;;;;;17.17;54.32;101897.53;7363570;19;20014;-62
2022/07/21 05:52:34;;;;;;;0.00;0.00;;;;;;;17.19;54.10;101901.00;7364383;19;20078;-62
2022/07/21 05:54:59;;;;;;;0.00;0.00;;;;;;;17.19;54.39;101890.44;7366302;19;20550;-62
2022/07/21 05:57:25;;;;;;;0.10;0.10;;;;;;;17.25;54.56;101898.16;7365417;19;20018;-62
2022/07/21 05:59:50;;;;;;;0.00;0.00;;;;;;;17.29;54.52;101899.81;7361673;19;20094;-62
2022/07/21 06:02:15;;;;;;;0.08;0.08;;;;;;;17.29;53.99;101899.81;7362221;19;20027;-61
2022/07/21 06:04:41;;;;;;;0.05;0.05;;;;;;;17.34;54.33;101908.44;7365360;19;20018;-61
2022/07/21 06:07:06;;;;;;;0.00;0.00;;;;;;;17.36;53.88;101909.25;7362139;19;20038;-62
2022/07/21 06:09:32;;;;;;;0.00;0.00;;;;;;;17.38;53.79;101904.78;7361508;19;20010;-62
2022/07/21 06:11:57;;;;;;;0.00;0.00;;;;;;;17.43;53.70;101911.69;7364812;19;20010;-61
2022/07/21 06:14:23;;;;;;;0.00;0.00;;;;;;;17.47;53.54;101914.19;7357693;19;20015;-62
2022/07/21 06:16:48;;;;;;;0.10;0.10;;;;;;;17.48;53.60;101912.41;7362112;19;20103;-62
2022/07/21 06:19:14;;;;;;;0.10;0.10;;;;;;;17.48;53.71;101904.47;7362449;19;20006;-62
2022/07/21 06:21:40;;;;;;;0.00;0.00;;;;;;;17.57;53.85;101912.97;7361969;19;20018;-62
2022/07/21 06:24:07;;;;;;;0.10;0.10;;;;;;;17.67;53.81;101913.53;7358827;19;20003;-62
2022/07/21 06:26:32;;;;;;;0.00;0.00;;;;;;;17.57;53.77;101891.84;7362925;19;20018;-62
2022/07/21 06:28:58;;;;;;;0.00;0.00;;;;;;;17.77;54.10;101915.00;7361550;19;20074;-62
2022/07/21 06:31:23;;;;;;;0.00;0.00;;;;;;;17.82;54.16;101907.78;7363629;19;20033;-62
2022/07/21 06:33:48;;;;;;;0.03;0.03;;;;;;;17.87;53.55;101915.56;7363221;19;20007;-62
2022/07/21 06:36:14;;;;;;;0.08;0.08;;;;;;;17.92;54.15;101923.31;7362896;19;20017;-62
2022/07/21 06:38:39;;;;;;;0.10;0.10;;;;;;;17.96;53.57;101922.31;7363295;19;20375;-61
2022/07/21 06:41:06;;;;;;;0.00;0.00;;;;;;;18.00;53.38;101929.22;7363912;19;20622;-62
2022/07/21 06:43:32;;;;;;;0.00;0.00;;;;;;;18.04;53.25;101922.91;7358692;19;20010;-62
2022/07/21 06:45:58;;;;;;;0.00;0.00;;;;;;;18.11;53.36;101929.72;7361639;19;20449;-62
2022/07/21 06:48:24;;;;;;;0.00;0.00;;;;;;;18.15;53.05;101931.34;7363159;19;20102;-62
2022/07/21 06:50:50;;;;;;;0.00;0.00;;;;;;;18.21;53.57;101940.84;7363434;19;20029;-62
2022/07/21 06:53:15;;;;;;;0.00;0.00;;;;;;;18.19;53.34;101932.94;7362618;19;20011;-62
2022/07/21 06:55:41;;;;;;;0.00;0.00;;;;;;;18.29;52.70;101942.28;7361420;19;20022;-62
2022/07/21 06:58:18;;;;;;;0.10;0.10;;;;;;;18.38;52.70;101939.31;7364553;19;20022;-62
2022/07/21 07:00:44;;;;;;;0.00;0.00;;;;;;;18.41;52.74;101944.50;7359706;19;20015;-62
2022/07/21 07:03:09;;;;;;;0.00;0.00;;;;;;;18.47;53.03;101942.56;7362985;19;21446;-62
2022/07/21 07:05:35;;;;;;;0.00;0.00;;;;;;;18.53;52.96;101942.34;7361680;19;20011;-61
2022/07/21 07:08:01;;;;;;;0.08;0.08;;;;;;;18.65;53.07;101947.16;7362815;19;20086;-61
2022/07/21 07:10:27;;;;;;;0.00;0.00;;;;;;;18.72;52.64;101947.88;7364642;19;20761;-62
2022/07/21 07:12:52;;;;;;;0.00;0.00;;;;;;;18.81;52.70;101943.09;7365379;19;20014;-62
2022/07/21 07:15:18;;;;;;;0.00;0.00;;;;;;;18.92;52.53;101946.19;7368769;19;20331;-62
2022/07/21 07:17:43;;;;;;;0.00;0.00;;;;;;;19.03;52.14;101947.56;7367771;19;20470;-62
2022/07/21 07:20:09;;;;;;;0.10;0.10;;;;;;;19.00;52.19;101929.16;7362633;19;20010;-62
2022/07/21 07:22:35;;;;;;;0.00;0.00;;;;;;;19.19;51.52;101946.06;7363955;19;21411;-62
2022/07/21 07:25:00;;;;;;;0.05;0.05;;;;;;;19.26;51.58;101944.91;7367221;19;20006;-62
2022/07/21 07:27:26;;;;;;;0.00;0.00;;;;;;;19.32;51.64;101938.50;7369644;19;20006;-61
2022/07/21 07:29:51;;;;;;;0.00;0.00;;;;;;;19.30;51.34;101935.91;7367324;19;20042;-62
2022/07/21 07:32:17;;;;;;;0.10;0.10;;;;;;;19.42;50.98;101945.16;7369305;19;20011;-62
2022/07/21 07:34:42;;;;;;;0.00;0.00;;;;;;;19.45;51.10;101951.19;7365469;19;20022;-62
2022/07/21 07:37:08;;;;;;;0.00;0.00;;;;;;;19.51;51.08;101957.16;7365768;19;20009;-61
2022/07/21 07:39:34;;;;;;;0.03;0.03;;;;;;;19.53;51.18;101957.97;7362140;19;20003;-62
2022/07/21 07:41:59;;;;;;;0.00;0.00;;;;;;;19.54;50.67;101957.06;7368566;19;20011;-62
2022/07/21 07:44:25;;;;;;;0.08;0.08;;;;;;;19.57;50.85;101955.16;7363036;19;20093;-62
2022/07/21 07:46:50;;;;;;;0.08;0.08;;;;;;;19.60;50.74;101954.19;7367093;19;20086;-62
2022/07/21 07:49:16;;;;;;;0.00;0.00;;;;;;;19.63;51.03;101956.72;7365478;19;20007;-62
2022/07/21 07:51:42;;;;;;;0.00;0.00;;;;;;;19.68;51.10;101957.41;7366624;19;20009;-62
2022/07/21 07:54:07;;;;;;;0.00;0.00;;;;;;;19.76;50.87;101960.56;7364088;19;20046;-62
2022/07/21 07:56:33;;;;;;;0.00;0.00;;;;;;;19.84;50.55;101961.13;7368166;19;20035;-62
2022/07/21 07:58:58;;;;;;;0.10;0.10;;;;;;;19.93;50.47;101960.75;7362114;19;20110;-61
2022/07/21 08:01:23;;;;;;;0.00;0.00;;;;;;;20.01;50.62;101954.25;7365118;19;20010;-62
2022/07/21 08:03:49;;;;;;;0.00;0.00;;;;;;;20.16;50.36;101969.53;7366236;19;20002;-62
2022/07/21 08:06:15;;;;;;;0.10;0.10;;;;;;;20.29;50.32;101970.72;7363956;19;20585;-62
2022/07/21 08:08:40;;;;;;;0.10;0.10;;;;;;;20.42;50.14;101974.56;7362273;19;20847;-62
2022/07/21 08:11:06;;;;;;;0.10;0.10;;;;;;;20.57;49.42;101964.25;7365158;19;20018;-62
2022/07/21 08:13:31;;;;;;;0.10;0.10;;;;;;;20.70;49.60;101960.13;7364089;19;20026;-61
2022/07/21 08:15:57;;;;;;;0.08;0.08;;;;;;;20.83;49.09;101971.88;7367092;19;20018;-62
2022/07/21 08:18:22;;;;;;;0.10;0.10;;;;;;;20.93;48.79;101967.91;7368296;19;20029;-62
2022/07/21 08:20:48;;;;;;;0.10;0.10;;;;;;;21.02;48.30;101965.75;7363237;19;20296;-61
2022/07/21 08:23:14;;;;;;;0.10;0.10;;;;;;;21.08;48.42;101973.41;7364181;19;20018;-62
2022/07/21 08:25:40;;;;;;;0.10;0.10;;;;;;;21.13;48.12;101971.41;7365438;19;20014;-62
2022/07/21 08:28:06;;;;;;;0.00;0.00;;;;;;;21.17;47.54;101970.34;7367623;19;20462;-62
2022/07/21 08:30:32;;;;;;;0.00;0.00;;;;;;;21.19;47.68;101973.81;7366035;19;20035;-62
2022/07/21 08:33:02;;;;;;;0.10;0.10;;;;;;;21.27;47.70;101968.97;7363292;19;20458;-62
2022/07/21 08:35:27;;;;;;;0.00;0.00;;;;;;;21.24;47.98;101961.16;7365067;19;20015;-62
2022/07/21 08:37:55;;;;;;;0.10;0.10;;;;;;;21.31;48.06;101970.59;7366822;19;20416;-62
2022/07/21 08:40:23;;;;;;;0.00;0.00;;;;;;;21.34;47.75;101973.13;7366112;19;20654;-62
2022/07/21 08:42:49;;;;;;;0.00;0.00;;;;;;;21.39;47.60;101965.78;7367181;19;20025;-62
2022/07/21 08:45:14;;;;;;;0.10;0.10;;;;;;;21.44;47.30;101971.75;7367656;19;20006;-62
2022/07/21 08:47:40;;;;;;;0.10;0.10;;;;;;;21.42;47.23;101960.31;7366495;19;20124;-62
2022/07/21 08:50:08;;;;;;;0.00;0.00;;;;;;;21.41;46.92;101955.94;7367088;19;20014;-62
2022/07/21 08:52:34;;;;;;;0.00;0.00;;;;;;;21.52;47.04;101967.84;7366008;19;20010;-62
2022/07/21 08:55:00;;;;;;;0.00;0.00;;;;;;;21.54;46.96;101973.94;7367543;19;20477;-61
2022/07/21 08:57:26;;;;;;;0.10;0.10;;;;;;;21.54;46.81;101974.78;7363524;19;20006;-62
2022/07/21 08:59:51;;;;;;;0.10;0.10;;;;;;;21.58;46.96;101981.69;7366489;19;20085;-62
2022/07/21 09:02:30;;;;;;;0.10;0.10;;;;;;;21.65;46.92;101982.28;7365153;19;20050;-62
2022/07/21 09:04:56;;;;;;;0.10;0.10;;;;;;;21.62;46.85;101974.44;7365439;19;20050;-61
2022/07/21 09:07:23;;;;;;;0.10;0.10;;;;;;;21.66;46.65;101978.66;7365148;19;20371;-62
2022/07/21 09:10:01;;;;;;;0.10;0.10;;;;;;;21.75;46.66;101978.22;7368459;19;20128;-62
2022/07/21 09:12:28;;;;;;;0.05;0.05;;;;;;;21.75;46.84;101983.53;7365172;19;20011;-61
2022/07/21 09:15:19;;;;;;;;;;;;;;;21.86;46.77;101981.22;7367667;19;20040;-62
2022/07/21 09:17:45;;;;;;;0.10;0.10;;;;;;;21.84;46.31;101980.41;7363507;19;19922;-62
2022/07/21 09:20:24;;;;;;;0.10;0.10;;;;;;;21.92;46.02;101986.22;7360225;19;20866;-62
2022/07/21 09:23:04;;;;;;;0.10;0.10;;;;;;;21.89;46.22;101980.19;7364444;19;20018;-62
2022/07/21 09:25:38;;;;;;;0.10;0.10;;;;;;;21.92;45.97;101975.56;7365944;19;20317;-62
2022/07/21 09:28:27;;;;;;;0.10;0.10;;;;;;;21.99;46.49;101981.44;7365521;19;20018;-61
2022/07/21 09:31:02;;;;;;;0.10;0.10;;;;;;;22.00;45.86;101984.03;7368741;19;20035;-61
2022/07/21 09:33:36;;;;;;;0.08;0.08;;;;;;;22.05;46.17;101990.91;7363141;19;20006;-61
2022/07/21 09:36:04;;;;;;;0.10;0.10;;;;;;;22.05;46.47;101985.59;7367231;19;20053;-62
2022/07/21 09:38:31;;;;;;;0.00;0.00;;;;;;;22.09;45.87;101992.47;7359498;19;20006;-62
2022/07/21 09:41:15;;;;;;;0.10;0.10;;;;;;;22.18;46.18;101986.72;7367333;19;20018;-61
2022/07/21 09:43:42;;;;;;;0.03;0.03;;;;;;;22.19;45.62;101988.44;7363591;19;20572;-61
2022/07/21 09:46:10;;;;;;;;;;;;;;;22.32;45.90;101989.56;7366480;19;20014;-62
2022/07/21 09:48:36;;;;;;;;;;;;;;;22.38;45.82;101986.56;7366165;19;19914;-61
2022/07/21 09:51:25;;;;;;;0.10;0.10;;;;;;;22.43;45.17;101989.00;7365673;19;19923;-61
2022/07/21 09:53:58;;;;;;;0.10;0.10;;;;;;;22.43;45.31;101986.34;7364529;19;20038;-61
2022/07/21 09:56:25;;;;;;;0.10;0.10;;;;;;;22.46;45.06;101987.03;7365476;19;20021;-62
2022/07/21 09:58:53;;;;;;;0.10;0.10;;;;;;;22.51;44.86;101989.47;7365981;19;20046;-62
2022/07/21 10:01:19;;;;;;;0.10;0.10;;;;;;;22.48;44.67;101974.50;7366598;19;20362;-62
2022/07/21 10:03:47;;;;;;;0.10;0.10;;;;;;;22.58;44.69;101974.03;7364115;19;20011;-62
2022/07/21 10:06:15;;;;;;;0.10;0.10;;;;;;;22.65;44.97;101970.94;7364330;19;20030;-62
2022/07/21 10:08:42;;;;;;;0.10;0.10;;;;;;;22.71;44.62;101972.44;7364564;19;20451;-61
2022/07/21 10:11:08;;;;;;;0.00;0.00;;;;;;;22.79;44.45;101972.88;7365279;19;20010;-61
2022/07/21 10:13:35;;;;;;;0.10;0.10;;;;;;;22.85;44.53;101969.88;7365934;19;20006;-61
2022/07/21 10:16:01;;;;;;;0.10;0.10;;;;;;;22.87;43.91;101960.00;7363471;19;20119;-61
2022/07/21 10:18:31;;;;;;;0.10;0.10;;;;;;;23.00;44.20;101977.06;7367176;19;20248;-62
2022/07/21 10:21:22;;;;;;;0.03;0.03;;;;;;;23.09;44.26;101980.19;7364612;19;20414;-62
2022/07/21 10:23:53;;;;;;;0.10;0.10;;;;;;;23.12;43.44;101975.56;7261029;19;2004264;-61
2022/07/21 10:26:18;;;;;;;0.10;0.10;;;;;;;23.16;43.18;101965.56;7366954;19;20006;-62
2022/07/21 10:28:44;;;;;;;0.03;0.03;;;;;;;23.21;43.56;101961.69;7361535;19;20490;-62
2022/07/21 10:31:23;;;;;;;0.10;0.10;;;;;;;23.39;43.72;101962.47;7364980;19;20014;-62
2022/07/21 10:33:48;;;;;;;0.10;0.10;;;;;;;23.45;43.47;101964.78;7361978;19;20154;-61
2022/07/21 10:36:36;;;;;;;0.10;0.10;;;;;;;23.64;43.22;101971.78;7365137;19;20028;-62
2022/07/21 10:39:10;;;;;;;0.10;0.10;;;;;;;23.73;42.72;101960.59;7263403;19;2004438;-61
2022/07/21 10:41:43;;;;;;;0.10;0.10;;;;;;;23.76;43.03;101953.25;7365518;19;20019;-61
2022/07/21 10:44:27;;;;;;;0.10;0.10;;;;;;;23.97;42.59;101963.63;7365894;19;20010;-61
2022/07/21 10:47:10;;;;;;;0.10;0.10;;;;;;;24.06;42.58;101963.06;7369728;19;20006;-61
2022/07/21 10:49:50;;;;;;;0.10;0.10;;;;;;;24.17;41.60;101962.44;7371260;19;20010;-61
2022/07/21 10:52:34;;;;;;;0.10;0.10;;;;;;;24.30;41.84;101964.28;7368634;19;20038;-62
2022/07/21 10:55:28;;;;;;;0.00;0.00;;;;;;;24.40;41.14;101955.75;7370182;19;20015;-62
2022/07/21 10:58:16;;;;;;;0.10;0.10;;;;;;;24.39;41.51;101943.38;7268785;19;2004392;-62
2022/07/21 11:00:45;;;;;;;0.05;0.05;;;;;;;24.56;41.20;101948.50;7268151;19;2004469;-61
2022/07/21 11:03:29;;;;;;;0.10;0.10;;;;;;;24.68;40.94;101938.88;7370601;19;20036;-61
2022/07/21 11:06:23;;;;;;;0.10;0.10;;;;;;;24.83;41.13;101944.09;7370353;19;20370;-62
2022/07/21 11:09:04;;;;;;;0.10;0.10;;;;;;;25.03;40.57;101940.16;7267413;19;2004407;-62
2022/07/21 11:11:57;;;;;;;0.10;0.10;;;;;;;25.26;41.31;101940.56;7370884;19;20014;-62
2022/07/21 11:14:36;;;;;;;0.10;0.10;;;;;;;25.51;40.60;101943.34;7269373;19;2004459;-62
2022/07/21 11:17:02;;;;;;;0.10;0.10;;;;;;;25.65;39.01;101941.53;7369162;19;20015;-62
2022/07/21 11:19:52;;;;;;;0.10;0.10;;;;;;;25.92;39.60;101945.09;7371144;19;21992;-62
2022/07/21 11:22:18;;;;;;;0.10;0.10;;;;;;;26.01;38.10;101944.47;7266994;19;2004386;-61
2022/07/21 11:24:46;;;;;;;0.10;0.10;;;;;;;26.13;36.48;101946.31;7366654;19;21475;-62
2022/07/21 11:27:14;;;;;;;0.05;0.05;;;;;;;26.23;37.92;101933.16;7367928;19;20018;-62
2022/07/21 11:29:41;;;;;;;0.10;0.10;;;;;;;26.37;37.11;101934.88;7369832;19;20094;-62
2022/07/21 11:32:09;;;;;;;0.10;0.10;;;;;;;26.58;37.17;101933.38;7369347;19;20034;-62